Time;durP1;ratioP1;P1;durP2;ratioP2;P2;SDS_P1;SDS_P2;PMS_P1;PMS_P2;Temp;Humidity;BMP_temperature;BMP_pressure;BME280_temperature;BME280_humidity;BME280_pressure;Samples;Min_cycle;Max_cycle;Signal;HPM_P1;HPM_P2
2021/07/28 00:00:16;;;;;;;14.25;11.27;;;;;;;18.39;100.00;99075.31;5115033;28;20243;-70
2021/07/28 00:02:43;;;;;;;16.77;12.75;;;;;;;18.25;100.00;99068.50;5114962;28;20202;-72
2021/07/28 00:05:11;;;;;;;15.57;12.00;;;;;;;18.10;100.00;99071.69;5115129;28;20196;-71
2021/07/28 00:07:38;;;;;;;13.98;9.95;;;;;;;18.04;100.00;99083.19;5115001;28;20281;-72
2021/07/28 00:10:06;;;;;;;13.88;11.57;;;;;;;18.10;100.00;99082.59;5115248;28;20602;-73
2021/07/28 00:12:34;;;;;;;12.68;10.32;;;;;;;17.99;100.00;99077.31;5114906;28;20625;-73
2021/07/28 00:15:00;;;;;;;13.68;10.65;;;;;;;17.92;100.00;99078.94;5114941;28;20221;-72
2021/07/28 00:17:28;;;;;;;14.85;11.68;;;;;;;17.92;100.00;99076.22;5115162;28;20239;-72
2021/07/28 00:19:57;;;;;;;15.88;10.35;;;;;;;17.97;100.00;99084.78;5114728;28;20674;-73
2021/07/28 00:25:09;;;;;;;12.20;10.70;;;;;;;17.71;100.00;99085.41;5113351;28;20648;-71
2021/07/28 00:27:37;;;;;;;14.45;10.50;;;;;;;17.78;100.00;99085.69;5114636;28;20633;-71
2021/07/28 00:30:07;;;;;;;15.35;11.30;;;;;;;17.75;100.00;99079.66;5114023;28;20194;-72
2021/07/28 00:32:34;;;;;;;23.52;17.65;;;;;;;17.84;100.00;99079.69;5114452;28;20195;-72
2021/07/28 00:35:01;;;;;;;15.57;11.02;;;;;;;18.08;100.00;99079.16;5114954;28;20217;-73
2021/07/28 00:37:27;;;;;;;16.75;12.18;;;;;;;18.11;100.00;99078.88;5114448;28;20604;-71
2021/07/28 00:39:54;;;;;;;18.20;12.38;;;;;;;18.22;100.00;99075.06;5114582;28;20208;-70
2021/07/28 00:42:21;;;;;;;15.18;11.52;;;;;;;18.28;100.00;99071.75;5114372;28;20190;-72
2021/07/28 00:44:49;;;;;;;14.65;10.88;;;;;;;18.39;100.00;99069.84;5109068;28;20614;-70
2021/07/28 00:47:15;;;;;;;16.17;10.80;;;;;;;18.31;100.00;99068.72;5114567;28;20217;-73
2021/07/28 00:49:42;;;;;;;13.32;11.88;;;;;;;18.37;100.00;99066.41;5114559;28;20191;-72
2021/07/28 00:52:09;;;;;;;18.88;11.60;;;;;;;18.40;100.00;99056.03;5114527;28;20617;-72
2021/07/28 00:54:36;;;;;;;12.82;11.02;;;;;;;18.32;100.00;99056.81;5114577;28;20189;-72
2021/07/28 00:57:03;;;;;;;10.90;9.77;;;;;;;18.44;100.00;99054.72;5114051;28;20189;-72
2021/07/28 00:59:30;;;;;;;16.30;11.05;;;;;;;18.46;100.00;99060.91;5114238;28;20660;-72
2021/07/28 01:01:58;;;;;;;16.02;11.18;;;;;;;18.53;99.61;99062.00;5113898;28;20195;-72
2021/07/28 01:04:25;;;;;;;12.57;10.18;;;;;;;18.52;100.00;99057.56;5113981;28;20196;-72
2021/07/28 01:06:52;;;;;;;14.70;10.85;;;;;;;18.66;98.64;99052.59;5114446;28;20197;-73
2021/07/28 01:09:19;;;;;;;16.52;11.43;;;;;;;18.74;97.14;99058.97;5114125;28;20189;-72
2021/07/28 01:11:46;;;;;;;12.77;10.00;;;;;;;18.81;95.64;99064.69;5113580;28;20308;-71
2021/07/28 01:14:12;;;;;;;14.85;10.88;;;;;;;18.78;94.70;99061.44;5114360;28;20611;-71
2021/07/28 01:16:41;;;;;;;14.32;10.02;;;;;;;18.57;95.21;99057.09;5113623;28;20254;-71
2021/07/28 01:19:12;;;;;;;17.00;11.13;;;;;;;18.62;94.29;99049.31;5114027;28;20201;-71
2021/07/28 01:21:39;;;;;;;12.73;10.60;;;;;;;18.46;95.69;99060.91;5114149;28;20193;-71
2021/07/28 01:24:08;;;;;;;11.90;9.48;;;;;;;18.33;95.64;99054.94;5113617;28;20207;-71
2021/07/28 01:26:35;;;;;;;19.13;10.98;;;;;;;18.23;95.57;99048.72;5106183;28;20288;-71
2021/07/28 01:29:01;;;;;;;11.05;9.65;;;;;;;18.12;95.82;99044.31;5113828;28;20188;-73
2021/07/28 01:31:28;;;;;;;13.90;10.57;;;;;;;18.09;95.97;99041.88;5113582;28;20199;-72
2021/07/28 01:33:56;;;;;;;10.80;9.68;;;;;;;18.31;95.48;99040.59;5113738;28;20545;-71
2021/07/28 01:36:23;;;;;;;12.48;10.50;;;;;;;18.25;96.73;99038.50;5113507;28;20276;-72
2021/07/28 01:38:51;;;;;;;11.35;9.55;;;;;;;18.27;96.18;99048.25;5114043;28;20177;-71
2021/07/28 01:41:19;;;;;;;13.00;10.57;;;;;;;18.23;96.01;99044.09;5113611;28;20306;-73
2021/07/28 01:43:45;;;;;;;15.32;11.07;;;;;;;18.31;94.13;99051.50;5113778;28;20199;-73
2021/07/28 01:46:14;;;;;;;13.05;8.80;;;;;;;18.30;93.53;99052.53;5113470;28;20199;-71
2021/07/28 01:48:40;;;;;;;11.25;9.73;;;;;;;18.40;92.09;99052.47;5113913;28;20273;-71
2021/07/28 01:51:07;;;;;;;10.05;8.98;;;;;;;18.47;90.83;99050.84;5113520;28;20640;-72
2021/07/28 01:53:33;;;;;;;12.50;9.35;;;;;;;18.46;89.64;99044.53;5113217;28;20201;-72
2021/07/28 01:56:00;;;;;;;14.15;9.32;;;;;;;18.66;88.02;99045.28;5113468;28;20184;-71
2021/07/28 01:58:28;;;;;;;12.10;8.75;;;;;;;18.75;87.27;99044.34;5112582;28;20223;-72
2021/07/28 02:00:55;;;;;;;12.40;8.55;;;;;;;18.72;86.31;99038.34;5112908;28;20223;-72
2021/07/28 02:03:22;;;;;;;9.02;8.10;;;;;;;18.60;86.45;99036.84;5113627;28;20188;-73
2021/07/28 02:05:49;;;;;;;12.80;8.50;;;;;;;18.51;86.84;99042.19;5113542;28;20224;-72
2021/07/28 02:08:18;;;;;;;15.20;8.27;;;;;;;18.57;86.43;99038.03;5113539;28;20194;-72
2021/07/28 02:10:46;;;;;;;12.30;9.07;;;;;;;18.65;86.10;99050.88;5113694;28;20691;-72
2021/07/28 02:13:13;;;;;;;14.38;10.07;;;;;;;18.66;84.95;99038.97;5113423;28;20189;-73
2021/07/28 02:15:43;;;;;;;11.13;8.38;;;;;;;18.63;85.53;99048.31;5113005;28;20267;-72
2021/07/28 02:18:10;;;;;;;11.00;8.80;;;;;;;18.80;83.88;99043.06;5112780;28;20185;-72
2021/07/28 02:20:36;;;;;;;11.00;8.23;;;;;;;18.72;83.93;99038.34;5114861;28;20562;-72
2021/07/28 02:23:04;;;;;;;10.30;8.80;;;;;;;18.77;83.53;99033.31;5117152;28;20262;-73
2021/07/28 02:25:31;;;;;;;11.40;8.38;;;;;;;18.68;83.97;99034.22;5117155;28;20292;-72
2021/07/28 02:27:58;;;;;;;9.70;7.47;;;;;;;18.69;83.54;99034.03;5117172;28;20190;-72
2021/07/28 02:30:25;;;;;;;9.65;8.25;;;;;;;18.66;83.56;99033.50;5117086;28;20706;-72
2021/07/28 02:32:53;;;;;;;9.90;8.13;;;;;;;18.70;83.64;99034.91;5117088;28;20679;-72
2021/07/28 02:35:19;;;;;;;10.93;8.50;;;;;;;18.73;83.14;99031.88;5117027;28;20636;-72
2021/07/28 02:37:47;;;;;;;9.52;8.05;;;;;;;18.97;81.75;99036.72;5117086;28;20624;-72
2021/07/28 02:40:15;;;;;;;10.32;7.93;;;;;;;18.87;82.43;99038.69;5116773;28;20245;-72
2021/07/28 02:42:42;;;;;;;11.27;9.18;;;;;;;18.88;82.46;99035.81;5117022;28;20198;-72
2021/07/28 02:45:09;;;;;;;13.35;8.15;;;;;;;18.85;82.60;99044.28;5116910;28;20199;-72
2021/07/28 02:47:36;;;;;;;9.57;7.63;;;;;;;18.83;82.91;99038.13;5116744;28;20226;-72
2021/07/28 02:50:05;;;;;;;10.25;8.23;;;;;;;18.81;83.04;99042.88;5116617;28;20527;-71
2021/07/28 02:52:32;;;;;;;9.88;8.25;;;;;;;18.81;82.89;99037.44;5116767;28;20186;-72
2021/07/28 02:55:04;;;;;;;9.68;7.47;;;;;;;18.84;83.06;99037.13;5116102;28;20196;-71
2021/07/28 02:57:31;;;;;;;15.35;7.40;;;;;;;18.76;82.99;99045.19;5116890;28;20218;-71
2021/07/28 03:00:00;;;;;;;8.90;7.90;;;;;;;18.57;83.79;99040.75;5116790;28;20528;-72
2021/07/28 03:02:27;;;;;;;8.95;8.00;;;;;;;18.85;83.05;99035.25;5116433;28;20194;-72
2021/07/28 03:04:54;;;;;;;10.05;8.10;;;;;;;18.85;83.54;99036.09;5116536;28;20205;-72
2021/07/28 03:07:22;;;;;;;10.73;8.65;;;;;;;18.83;84.37;99035.41;5116350;28;20201;-73
2021/07/28 03:09:48;;;;;;;14.48;8.68;;;;;;;18.86;84.29;99043.28;5116775;28;20709;-72
2021/07/28 03:12:15;;;;;;;9.77;8.05;;;;;;;18.90;84.46;99041.97;5116387;28;20237;-72
2021/07/28 03:14:42;;;;;;;10.02;8.25;;;;;;;18.78;84.84;99037.75;5116537;28;20583;-72
2021/07/28 03:17:08;;;;;;;9.73;7.90;;;;;;;18.86;84.66;99036.97;5116479;28;20274;-72
2021/07/28 03:19:35;;;;;;;12.25;9.00;;;;;;;18.75;85.28;99035.31;5115404;28;20282;-71
2021/07/28 03:22:01;;;;;;;10.18;8.70;;;;;;;18.64;86.80;99024.63;5116143;28;20650;-71
2021/07/28 03:24:29;;;;;;;12.75;7.70;;;;;;;18.74;85.83;99025.41;5116152;28;20279;-71
2021/07/28 03:26:56;;;;;;;11.15;8.80;;;;;;;18.59;85.94;99024.22;5116069;28;20208;-72
2021/07/28 03:29:23;;;;;;;11.27;7.88;;;;;;;18.49;88.13;99027.88;5115797;28;20200;-72
2021/07/28 03:31:50;;;;;;;11.85;9.15;;;;;;;18.58;87.68;99019.78;5114479;28;20187;-72
2021/07/28 03:34:17;;;;;;;10.60;9.10;;;;;;;18.47;88.05;99023.59;5109953;28;20190;-72
2021/07/28 03:36:43;;;;;;;10.25;8.15;;;;;;;18.57;88.15;99029.00;5116229;28;20196;-72
2021/07/28 03:39:10;;;;;;;11.52;8.93;;;;;;;18.54;88.25;99022.84;5115735;28;20706;-72
2021/07/28 03:41:38;;;;;;;11.93;8.90;;;;;;;18.55;88.17;99024.53;5115493;28;20252;-73
2021/07/28 03:44:05;;;;;;;12.50;8.70;;;;;;;18.44;89.11;99027.47;5115746;28;20638;-72
2021/07/28 03:46:32;;;;;;;10.90;9.25;;;;;;;18.29;89.73;99027.16;5115445;28;20188;-71
2021/07/28 03:48:58;;;;;;;10.93;8.07;;;;;;;18.36;90.14;99024.69;5115103;28;20548;-71
2021/07/28 03:51:25;;;;;;;10.48;8.48;;;;;;;18.19;89.96;99022.75;5115614;28;20288;-72
2021/07/28 03:53:52;;;;;;;10.77;9.65;;;;;;;18.06;91.99;99028.56;5115317;28;20196;-71
2021/07/28 03:56:22;;;;;;;14.50;9.13;;;;;;;18.29;91.52;99023.56;5115193;28;20280;-72
2021/07/28 03:58:52;;;;;;;17.92;9.13;;;;;;;18.43;89.92;99017.59;5115184;28;20259;-71
2021/07/28 04:01:19;;;;;;;13.65;8.85;;;;;;;18.30;90.88;99017.97;5115089;28;20229;-71
2021/07/28 04:03:46;;;;;;;11.40;9.15;;;;;;;18.34;90.65;99022.09;5115504;28;20545;-71
2021/07/28 04:06:12;;;;;;;11.77;9.25;;;;;;;18.41;90.31;99016.91;5115426;28;20644;-72
2021/07/28 04:08:39;;;;;;;13.00;9.70;;;;;;;18.47;89.58;99016.25;5115405;28;20609;-71
2021/07/28 04:11:05;;;;;;;12.05;8.38;;;;;;;18.58;89.04;99022.50;5115300;28;20680;-72
2021/07/28 04:13:32;;;;;;;15.57;8.90;;;;;;;18.72;88.26;99016.50;5115291;28;20269;-72
2021/07/28 04:16:00;;;;;;;12.98;8.88;;;;;;;18.73;87.57;99018.25;5115340;28;20188;-71
2021/07/28 04:18:27;;;;;;;12.30;9.32;;;;;;;18.73;88.20;99012.78;5114900;28;20291;-71
2021/07/28 04:20:53;;;;;;;11.30;9.32;;;;;;;18.89;87.26;99009.41;5115120;28;20289;-71
2021/07/28 04:23:20;;;;;;;14.05;8.98;;;;;;;18.85;87.78;99021.63;5114798;28;20554;-72
2021/07/28 04:25:47;;;;;;;10.23;8.45;;;;;;;18.89;87.03;99015.69;5114794;28;20203;-72
2021/07/28 04:28:14;;;;;;;11.10;9.68;;;;;;;18.93;86.85;99013.53;5114560;28;20186;-72
2021/07/28 04:30:40;;;;;;;9.75;8.73;;;;;;;18.93;86.54;99008.91;5114399;28;20185;-72
2021/07/28 04:33:08;;;;;;;11.75;9.60;;;;;;;18.90;86.77;99011.97;5114894;28;20196;-71
2021/07/28 04:35:35;;;;;;;13.23;9.77;;;;;;;18.92;87.07;99011.78;5114549;28;20272;-71
2021/07/28 04:38:02;;;;;;;9.73;8.73;;;;;;;19.00;86.61;99013.75;5114746;28;20205;-71
2021/07/28 04:40:28;;;;;;;14.40;8.70;;;;;;;18.93;87.12;99008.91;5113349;28;20215;-72
2021/07/28 04:42:55;;;;;;;12.80;7.93;;;;;;;18.99;87.32;99012.03;5114242;28;20201;-73
2021/07/28 04:45:22;;;;;;;11.07;9.35;;;;;;;18.92;87.96;99017.25;5113995;28;20802;-72
2021/07/28 04:47:48;;;;;;;11.57;8.68;;;;;;;18.98;87.25;99015.78;5114435;28;20231;-72
2021/07/28 04:50:16;;;;;;;10.13;8.60;;;;;;;19.16;86.62;99016.63;5113989;28;20279;-72
2021/07/28 04:52:43;;;;;;;12.40;9.23;;;;;;;19.04;87.09;99020.59;5113845;28;20601;-72
2021/07/28 04:55:10;;;;;;;13.18;10.80;;;;;;;19.14;86.28;99032.28;5113715;28;20289;-72
2021/07/28 04:57:37;;;;;;;13.88;9.55;;;;;;;19.14;86.53;99026.81;5114368;28;20625;-72
2021/07/28 05:00:05;;;;;;;11.02;8.60;;;;;;;19.28;85.65;99031.72;5113875;28;20281;-71
2021/07/28 05:02:31;;;;;;;12.30;9.23;;;;;;;19.20;86.16;99026.19;5113712;28;20214;-71
2021/07/28 05:04:58;;;;;;;12.13;8.85;;;;;;;19.17;86.07;99021.94;5113358;28;20195;-73
2021/07/28 05:07:26;;;;;;;19.42;12.07;;;;;;;19.19;86.64;99023.63;5114161;28;20718;-71
2021/07/28 05:09:55;;;;;;;18.05;9.68;;;;;;;19.14;87.13;99019.50;5114131;28;20190;-71
2021/07/28 05:12:21;;;;;;;13.60;10.18;;;;;;;19.14;86.97;99024.09;5113978;28;20226;-72
2021/07/28 05:14:48;;;;;;;13.63;9.48;;;;;;;19.11;87.56;99021.69;5113244;28;20616;-74
2021/07/28 05:17:15;;;;;;;11.57;9.10;;;;;;;19.32;86.63;99030.38;5112771;28;20189;-74
2021/07/28 05:19:41;;;;;;;14.18;9.77;;;;;;;19.38;85.84;99034.38;5112643;28;20603;-76
2021/07/28 05:22:08;;;;;;;13.75;10.52;;;;;;;19.25;86.70;99032.03;5112757;28;20561;-73
2021/07/28 05:24:36;;;;;;;12.32;11.02;;;;;;;19.35;86.96;99031.94;5110062;28;20223;-76
2021/07/28 05:27:02;;;;;;;13.73;10.80;;;;;;;19.31;86.97;99036.88;5112658;28;20202;-75
2021/07/28 05:29:29;;;;;;;15.77;11.90;;;;;;;19.24;87.49;99038.50;5111813;28;20198;-73
2021/07/28 05:31:56;;;;;;;16.65;10.80;;;;;;;19.36;87.13;99030.94;5111850;28;20218;-74
2021/07/28 05:34:22;;;;;;;13.82;10.65;;;;;;;19.44;86.86;99030.13;5112071;28;20197;-75
2021/07/28 05:36:49;;;;;;;12.65;11.20;;;;;;;19.68;84.79;99030.28;5112457;28;20187;-75
2021/07/28 05:39:15;;;;;;;13.45;10.73;;;;;;;19.72;84.67;99039.06;5112383;28;20652;-74
2021/07/28 05:41:43;;;;;;;12.52;9.48;;;;;;;19.77;84.08;99039.44;5111736;28;20210;-74
2021/07/28 05:44:10;;;;;;;14.85;10.60;;;;;;;19.75;84.38;99049.66;5112172;28;20233;-74
2021/07/28 05:46:37;;;;;;;12.43;10.50;;;;;;;19.85;83.67;99053.09;5112083;28;20623;-74
2021/07/28 05:49:04;;;;;;;15.18;11.07;;;;;;;19.88;82.99;99062.88;5112199;28;20189;-74
2021/07/28 05:51:31;;;;;;;13.85;10.38;;;;;;;19.81;83.68;99059.94;5111310;28;20350;-75
2021/07/28 05:53:57;;;;;;;14.00;9.60;;;;;;;19.84;83.59;99059.59;5111900;28;20189;-74
2021/07/28 05:56:24;;;;;;;14.50;10.50;;;;;;;19.91;82.65;99048.91;5114496;28;20292;-75
2021/07/28 05:58:52;;;;;;;14.25;10.57;;;;;;;19.90;82.08;99056.25;5115338;28;20572;-75
2021/07/28 06:01:20;;;;;;;18.08;11.88;;;;;;;19.94;82.51;99045.81;5116010;28;20226;-74
2021/07/28 06:03:48;;;;;;;10.93;9.75;;;;;;;19.85;81.77;99049.53;5116062;28;20203;-74
2021/07/28 06:06:15;;;;;;;17.08;10.30;;;;;;;19.86;82.07;99049.38;5115780;28;20182;-74
2021/07/28 06:08:41;;;;;;;11.00;9.68;;;;;;;20.03;81.33;99046.72;5116072;28;20640;-75
2021/07/28 06:11:08;;;;;;;10.45;9.48;;;;;;;20.09;81.12;99046.09;5116171;28;20256;-76
2021/07/28 06:13:34;;;;;;;13.05;10.57;;;;;;;20.17;80.13;99052.44;5115641;28;20221;-75
2021/07/28 06:16:02;;;;;;;17.40;9.90;;;;;;;20.17;80.35;99046.97;5115545;28;20184;-74
2021/07/28 06:18:29;;;;;;;11.85;10.00;;;;;;;20.34;79.37;99057.97;5116009;28;20201;-75
2021/07/28 06:20:56;;;;;;;14.65;9.55;;;;;;;20.37;78.86;99058.50;5116095;28;20214;-75
2021/07/28 06:23:22;;;;;;;12.80;10.15;;;;;;;20.42;79.36;99060.75;5115353;28;20293;-74
2021/07/28 06:25:49;;;;;;;11.30;10.10;;;;;;;20.36;79.53;99062.25;5115367;28;20211;-75
2021/07/28 06:28:15;;;;;;;11.43;10.23;;;;;;;20.43;78.75;99051.50;5115714;28;20585;-75
2021/07/28 06:30:42;;;;;;;13.57;9.82;;;;;;;20.48;79.15;99064.69;5115131;28;20521;-75
2021/07/28 06:33:11;;;;;;;11.20;10.00;;;;;;;20.61;78.50;99055.00;5117017;28;20194;-75
2021/07/28 06:35:38;;;;;;;11.40;9.82;;;;;;;20.74;76.89;99065.50;5116510;28;20585;-74
2021/07/28 06:38:04;;;;;;;12.70;10.18;;;;;;;20.71;77.54;99064.94;5116227;28;20225;-74
2021/07/28 06:40:31;;;;;;;14.20;10.97;;;;;;;20.67;77.49;99063.56;5116431;28;20282;-73
2021/07/28 06:42:58;;;;;;;14.17;9.87;;;;;;;20.79;77.25;99064.97;5116642;28;20472;-75
2021/07/28 06:45:24;;;;;;;11.40;9.37;;;;;;;20.90;76.43;99061.94;5117046;28;20472;-75
2021/07/28 06:47:51;;;;;;;11.57;9.27;;;;;;;20.95;76.04;99059.53;5116753;28;20734;-75
2021/07/28 06:50:20;;;;;;;11.90;8.67;;;;;;;20.88;75.99;99063.13;5116720;28;20515;-75
2021/07/28 06:52:47;;;;;;;12.50;9.27;;;;;;;20.89;76.17;99064.81;5116510;28;20919;-75
2021/07/28 06:55:14;;;;;;;11.43;9.43;;;;;;;20.84;76.48;99068.06;5116815;28;20433;-73
2021/07/28 06:57:40;;;;;;;11.73;9.60;;;;;;;20.88;76.80;99063.13;5116308;28;20430;-75
2021/07/28 07:00:08;;;;;;;12.57;9.93;;;;;;;20.81;76.93;99069.25;5116177;28;20793;-76
2021/07/28 07:02:35;;;;;;;11.90;10.17;;;;;;;20.88;77.30;99072.19;5116197;28;20544;-75
2021/07/28 07:05:01;;;;;;;9.63;8.73;;;;;;;20.61;78.34;99071.44;5116045;28;20444;-75
2021/07/28 07:07:29;;;;;;;15.33;10.33;;;;;;;20.79;77.65;99081.41;5115057;28;20470;-76
2021/07/28 07:09:56;;;;;;;18.13;13.50;;;;;;;20.94;77.41;99077.00;5116609;28;20521;-75
2021/07/28 07:12:23;;;;;;;16.90;12.87;;;;;;;20.94;76.87;99076.09;5115748;28;20465;-76
2021/07/28 07:14:50;;;;;;;19.90;10.30;;;;;;;20.79;77.44;99068.56;5116006;28;20433;-77
2021/07/28 07:17:17;;;;;;;10.87;9.30;;;;;;;21.02;76.68;99071.50;5115309;28;20449;-75
2021/07/28 07:19:44;;;;;;;11.43;9.80;;;;;;;21.13;76.44;99069.47;5116182;28;20429;-76
2021/07/28 07:22:10;;;;;;;11.13;9.63;;;;;;;21.20;75.49;99075.97;5115938;28;20465;-76
2021/07/28 07:24:38;;;;;;;12.30;9.80;;;;;;;21.47;74.79;99068.50;5116738;28;20445;-74
2021/07/28 07:27:05;;;;;;;15.13;10.23;;;;;;;21.36;74.89;99065.03;5115944;28;20436;-75
2021/07/28 07:29:34;;;;;;;12.20;9.97;;;;;;;21.29;75.37;99068.63;5115532;28;20524;-74
2021/07/28 07:32:02;;;;;;;11.10;9.93;;;;;;;21.45;74.78;99060.44;5115853;28;20441;-74
2021/07/28 07:34:29;;;;;;;18.10;14.90;;;;;;;21.59;74.75;99065.22;5115586;28;20471;-75
2021/07/28 07:36:56;;;;;;;12.70;9.83;;;;;;;21.81;73.20;99069.13;5114994;28;20474;-74
2021/07/28 07:39:22;;;;;;;13.20;9.90;;;;;;;21.64;73.36;99073.78;5115675;28;20465;-75
2021/07/28 07:41:51;;;;;;;12.13;9.43;;;;;;;21.28;74.57;99077.84;5115746;28;21068;-75
2021/07/28 07:44:17;;;;;;;11.83;10.60;;;;;;;20.98;76.29;99077.50;5116430;28;20525;-75
2021/07/28 07:46:44;;;;;;;15.50;10.67;;;;;;;21.07;76.40;99075.63;5115944;28;20461;-75
2021/07/28 07:49:10;;;;;;;18.97;10.77;;;;;;;21.14;75.68;99080.28;5115766;28;20437;-74
2021/07/28 07:51:37;;;;;;;18.07;10.33;;;;;;;21.16;75.86;99075.44;5115856;28;20443;-74
2021/07/28 07:54:04;;;;;;;14.60;11.43;;;;;;;21.26;75.90;99074.47;5115321;28;20437;-75
2021/07/28 07:56:31;;;;;;;12.07;10.17;;;;;;;21.03;76.11;99064.19;5115587;28;20426;-76
2021/07/28 07:58:59;;;;;;;11.40;10.20;;;;;;;20.93;77.04;99064.31;5115328;28;20871;-74
2021/07/28 08:01:25;;;;;;;13.07;11.57;;;;;;;20.85;77.71;99061.59;5114705;28;21237;-75
2021/07/28 08:03:52;;;;;;;14.87;11.43;;;;;;;21.13;77.15;99062.13;5115327;28;20432;-74
2021/07/28 08:06:19;;;;;;;12.27;11.00;;;;;;;21.59;75.85;99056.16;5115050;28;20440;-75
2021/07/28 08:08:46;;;;;;;11.30;10.10;;;;;;;21.25;76.46;99062.63;5115101;28;20433;-76
2021/07/28 08:11:13;;;;;;;12.90;10.83;;;;;;;21.89;73.35;99059.16;5114528;28;20555;-75
2021/07/28 08:13:41;;;;;;;9.97;8.97;;;;;;;21.47;74.32;99055.66;5114884;28;20434;-74
2021/07/28 08:16:13;;;;;;;11.60;9.17;;;;;;;22.32;71.81;99063.38;5114940;28;20476;-75
2021/07/28 08:18:41;;;;;;;12.67;9.90;;;;;;;22.86;69.02;99057.94;5114301;28;20512;-75
2021/07/28 08:21:09;;;;;;;12.07;9.60;;;;;;;22.38;69.45;99048.91;5114353;28;20946;-74
2021/07/28 08:23:36;;;;;;;12.70;11.33;;;;;;;22.49;69.63;99047.69;5114924;28;20516;-75
2021/07/28 08:26:02;;;;;;;16.73;12.83;;;;;;;22.27;70.75;99058.41;5114848;28;20414;-74
2021/07/28 08:28:29;;;;;;;12.43;9.73;;;;;;;22.60;69.77;99046.44;5114420;28;20429;-76
2021/07/28 08:30:56;;;;;;;12.50;9.57;;;;;;;22.34;69.68;99046.72;5114641;28;20500;-76
2021/07/28 08:33:25;;;;;;;10.87;9.13;;;;;;;21.89;71.34;99059.16;5114661;28;20922;-76
2021/07/28 08:35:51;;;;;;;11.40;10.30;;;;;;;21.81;71.82;99052.69;5114478;28;20529;-74
2021/07/28 08:38:21;;;;;;;13.20;9.20;;;;;;;21.79;72.05;99057.47;5114406;28;20436;-75
2021/07/28 08:40:50;;;;;;;11.70;10.30;;;;;;;21.97;71.75;99057.25;5114229;28;20898;-75
2021/07/28 08:43:19;;;;;;;12.00;9.83;;;;;;;21.79;72.66;99042.94;5113873;28;20468;-75
2021/07/28 08:45:47;;;;;;;11.77;9.03;;;;;;;21.35;75.07;99057.84;5113608;28;20432;-75
2021/07/28 08:48:17;;;;;;;12.97;10.20;;;;;;;21.24;75.84;99056.31;5114319;28;20516;-75
2021/07/28 08:50:48;;;;;;;11.87;9.90;;;;;;;21.50;75.19;99059.91;5113617;28;20444;-75
2021/07/28 08:53:14;;;;;;;11.43;10.27;;;;;;;21.47;75.22;99061.13;5114152;28;20423;-76
2021/07/28 08:55:41;;;;;;;12.13;9.53;;;;;;;21.83;73.76;99055.25;5114488;28;20510;-75
2021/07/28 08:58:10;;;;;;;10.70;9.60;;;;;;;21.99;73.03;99051.63;5113773;28;20801;-75
2021/07/28 09:00:44;;;;;;;10.67;9.57;;;;;;;22.20;72.14;99051.03;5113735;28;20512;-75
2021/07/28 09:03:11;;;;;;;10.00;9.00;;;;;;;22.34;70.80;99053.06;5113554;28;20568;-73
2021/07/28 09:05:41;;;;;;;12.93;9.57;;;;;;;22.22;71.02;99055.34;5114250;28;20930;-75
2021/07/28 09:08:22;;;;;;;13.93;12.17;;;;;;;22.56;70.05;99051.41;5114974;27;20441;-75
2021/07/28 09:10:50;;;;;;;12.77;9.87;;;;;;;22.69;69.54;99056.31;5113900;28;20793;-77
2021/07/28 09:13:29;;;;;;;11.00;9.13;;;;;;;23.06;68.03;99051.97;5114250;28;20895;-76
2021/07/28 09:15:57;;;;;;;13.10;9.33;;;;;;;23.00;67.65;99060.97;5113143;28;20524;-74
2021/07/28 09:18:35;;;;;;;11.17;9.00;;;;;;;23.01;67.74;99057.19;5113522;28;20448;-72
2021/07/28 09:21:03;;;;;;;10.90;9.80;;;;;;;23.05;67.70;99061.28;5113204;28;20468;-74
2021/07/28 09:23:37;;;;;;;10.87;9.70;;;;;;;22.76;68.42;99057.31;5112799;28;20485;-74
2021/07/28 09:26:06;;;;;;;12.00;9.13;;;;;;;22.86;68.69;99066.16;5092978;28;20540;-74
2021/07/28 09:28:33;;;;;;;10.10;9.10;;;;;;;22.63;68.56;99068.00;5104605;28;20453;-74
2021/07/28 09:31:00;;;;;;;12.53;10.30;;;;;;;22.23;71.28;99067.19;5112976;28;20443;-73
2021/07/28 09:33:27;;;;;;;9.50;8.47;;;;;;;22.61;69.90;99076.44;5113752;28;20433;-74
2021/07/28 09:36:17;;;;;;;11.23;8.70;;;;;;;23.55;65.74;99078.22;5114786;28;20441;-75
2021/07/28 09:38:48;;;;;;;8.27;7.57;;;;;;;23.17;66.53;99067.19;5116487;28;20803;-74
2021/07/28 09:41:23;;;;;;;14.00;8.30;;;;;;;23.50;65.65;99074.13;5093452;28;20418;-75
2021/07/28 09:43:52;;;;;;;9.50;6.93;;;;;;;23.41;65.06;99079.88;5101523;28;20785;-74
2021/07/28 09:46:30;;;;;;;6.37;5.77;;;;;;;22.85;65.99;99069.94;5113452;28;20522;-75
2021/07/28 09:48:58;;;;;;;6.40;5.80;;;;;;;23.01;65.56;99071.75;5113230;28;20445;-74
2021/07/28 09:51:27;;;;;;;7.37;5.60;;;;;;;22.64;66.78;99081.56;5113613;28;20941;-73
2021/07/28 09:53:56;;;;;;;8.57;6.03;;;;;;;22.34;68.54;99080.50;5112683;28;20436;-74
2021/07/28 09:56:29;;;;;;;7.60;5.00;;;;;;;22.58;67.34;99074.03;5105655;28;20425;-73
2021/07/28 09:58:58;;;;;;;5.87;5.27;;;;;;;22.64;67.08;99081.56;5111188;28;20429;-74
2021/07/28 10:01:26;;;;;;;5.57;4.87;;;;;;;22.65;66.72;99080.50;5111544;28;20466;-75
2021/07/28 10:03:54;;;;;;;6.00;5.40;;;;;;;22.74;67.12;99072.25;5110628;28;20501;-76
2021/07/28 10:06:22;;;;;;;4.67;4.17;;;;;;;22.58;67.75;99076.78;5111894;28;20487;-74
2021/07/28 10:08:53;;;;;;;6.20;4.73;;;;;;;22.93;67.14;99074.53;5111666;28;20437;-75
2021/07/28 10:11:23;;;;;;;6.13;4.83;;;;;;;23.29;64.87;99073.94;5110998;28;20479;-75
2021/07/28 10:13:51;;;;;;;7.70;6.90;;;;;;;23.03;65.99;99075.19;5111946;28;20436;-75
2021/07/28 10:16:18;;;;;;;5.30;4.90;;;;;;;23.62;63.60;99068.19;5104189;28;20796;-74
2021/07/28 10:18:46;;;;;;;4.57;4.23;;;;;;;23.44;63.57;99072.09;5111030;28;20433;-74
2021/07/28 10:21:13;;;;;;;3.67;3.37;;;;;;;23.36;64.22;99061.22;5111349;28;20444;-76
2021/07/28 10:23:42;;;;;;;5.77;4.20;;;;;;;22.99;65.72;99070.19;5108218;28;20565;-74
2021/07/28 10:26:11;;;;;;;4.03;3.63;;;;;;;23.22;64.99;99070.22;5110978;28;20438;-73
2021/07/28 10:28:40;;;;;;;4.23;3.83;;;;;;;23.18;65.26;99067.00;5111952;28;20531;-74
2021/07/28 10:31:21;;;;;;;4.43;4.03;;;;;;;23.56;64.15;99069.75;5111301;28;20471;-74
2021/07/28 10:33:52;;;;;;;3.57;3.27;;;;;;;23.36;63.79;99055.72;5111269;28;20484;-75
2021/07/28 10:36:19;;;;;;;4.30;3.90;;;;;;;23.49;62.83;99058.69;5111415;28;20480;-73
2021/07/28 10:38:54;;;;;;;4.30;3.67;;;;;;;24.01;61.43;99061.63;5111199;28;20440;-74
2021/07/28 10:41:48;;;;;;;4.73;4.20;;;;;;;23.89;61.01;99075.00;5112853;28;20455;-75
2021/07/28 10:44:18;;;;;;;5.20;3.90;;;;;;;23.47;61.94;99065.38;5115186;28;20471;-75
2021/07/28 10:47:12;;;;;;;4.83;4.33;;;;;;;23.90;60.40;99072.06;5114650;28;20463;-75
2021/07/28 10:49:47;;;;;;;6.20;4.57;;;;;;;23.78;60.35;99065.31;5114675;28;20773;-75
2021/07/28 10:52:49;;;;;;;4.50;3.97;;;;;;;23.90;60.91;99065.69;5115357;28;20516;-75
2021/07/28 10:55:18;;;;;;;5.13;4.40;;;;;;;24.48;58.88;99058.50;5114490;27;20519;-74
2021/07/28 10:58:23;;;;;;;3.87;3.57;;;;;;;24.42;58.32;99064.78;5114399;28;20640;-74
2021/07/28 11:00:55;;;;;;;3.70;3.40;;;;;;;23.29;61.80;99072.06;5114756;28;20471;-74
2021/07/28 11:03:30;;;;;;;4.70;4.30;;;;;;;22.85;62.94;99060.84;5114481;28;20985;-75
2021/07/28 11:06:18;;;;;;;5.20;4.70;;;;;;;23.12;63.09;99059.50;5114399;28;20441;-74
2021/07/28 11:08:47;;;;;;;6.03;4.87;;;;;;;23.44;61.39;99058.38;5114192;28;20472;-73
2021/07/28 11:11:22;;;;;;;6.83;4.63;;;;;;;23.81;59.90;99058.56;5114733;28;20487;-74
2021/07/28 11:13:50;;;;;;;4.90;4.40;;;;;;;23.87;59.77;99055.09;5114419;28;20929;-73
2021/07/28 11:16:18;;;;;;;4.97;4.50;;;;;;;24.31;57.78;99063.34;5114383;28;20433;-76
2021/07/28 11:18:46;;;;;;;5.07;4.40;;;;;;;24.71;55.92;99055.59;5114556;28;20924;-74
2021/07/28 11:21:15;;;;;;;5.00;4.50;;;;;;;24.70;55.87;99055.81;5113755;28;20906;-75
2021/07/28 11:23:51;;;;;;;3.60;3.30;;;;;;;24.48;56.60;99064.00;5112341;28;20504;-76
2021/07/28 11:26:29;;;;;;;4.77;3.97;;;;;;;25.42;54.09;99054.03;5113820;28;20433;-74
2021/07/28 11:28:57;;;;;;;5.33;4.40;;;;;;;25.98;52.18;99063.25;5114619;27;20971;-75
2021/07/28 11:31:30;;;;;;;6.93;4.40;;;;;;;26.15;51.62;99054.63;5114546;28;20426;-75